createdAt,value
2023-05-14T00:00:35.367Z,27.45
2023-05-14T00:01:36.379Z,26.10
2023-05-14T00:02:35.448Z,27.34
2023-05-14T00:03:35.428Z,26.83
2023-05-14T00:04:36.517Z,26.52
2023-05-14T00:05:36.341Z,27.62
2023-05-14T00:06:35.335Z,27.11
2023-05-14T00:07:36.326Z,26.92
2023-05-14T00:08:35.306Z,25.00
2023-05-14T00:09:36.340Z,25.92
2023-05-14T00:10:35.306Z,27.32
2023-05-14T00:11:36.340Z,26.50
2023-05-14T00:12:35.283Z,26.33
2023-05-14T00:13:36.289Z,26.41
2023-05-14T00:14:36.272Z,25.80
2023-05-14T00:15:35.329Z,26.69
2023-05-14T00:16:35.383Z,27.33
2023-05-14T00:17:36.332Z,27.68
2023-05-14T00:18:36.273Z,26.94
2023-05-14T00:19:36.256Z,27.31
2023-05-14T00:20:35.288Z,25.19
2023-05-14T00:21:36.220Z,25.34
2023-05-14T00:22:35.245Z,26.55
2023-05-14T00:23:36.268Z,27.86
2023-05-14T00:24:36.226Z,26.49
2023-05-14T00:25:35.233Z,26.47
2023-05-14T00:26:35.247Z,28.46
2023-05-14T00:27:35.200Z,27.24
2023-05-14T00:28:36.169Z,26.10
2023-05-14T00:29:36.175Z,26.33
2023-05-14T00:30:35.170Z,27.29
2023-05-14T00:31:36.230Z,26.53
2023-05-14T00:32:36.177Z,28.86
2023-05-14T00:33:35.153Z,27.45
2023-05-14T00:34:35.148Z,26.28
2023-05-14T00:35:35.143Z,26.14
2023-05-14T00:36:35.150Z,27.14
2023-05-14T00:37:35.112Z,26.84
2023-05-14T00:38:36.129Z,26.73
2023-05-14T00:39:35.106Z,26.33
2023-05-14T00:40:35.121Z,25.19
2023-05-14T00:41:35.123Z,25.68
2023-05-14T00:42:36.152Z,27.42
2023-05-14T00:43:36.193Z,27.96
2023-05-14T00:44:35.207Z,27.98
2023-05-14T00:45:36.222Z,26.88
2023-05-14T00:46:36.244Z,26.60
2023-05-14T00:47:36.325Z,26.80
2023-05-14T00:48:35.272Z,28.06
2023-05-14T00:49:35.313Z,26.41
2023-05-14T00:50:36.370Z,26.32
2023-05-14T00:51:36.338Z,27.17
2023-05-14T00:52:36.377Z,27.06
2023-05-14T00:53:36.394Z,25.71
2023-05-14T00:54:35.421Z,25.74
2023-05-14T00:55:35.433Z,27.19
2023-05-14T00:56:36.472Z,27.66
2023-05-14T00:57:35.489Z,27.87
2023-05-14T00:58:36.493Z,28.54
2023-05-14T00:59:36.555Z,30.26
2023-05-14T01:00:36.586Z,26.61
2023-05-14T01:01:35.575Z,27.15
2023-05-14T01:02:36.717Z,27.71
2023-05-14T01:03:36.741Z,27.53
2023-05-14T01:04:36.641Z,28.12
2023-05-14T01:05:36.772Z,27.33
2023-05-14T01:06:35.842Z,27.32
2023-05-14T01:07:36.700Z,28.06
2023-05-14T01:08:36.719Z,27.70
2023-05-14T01:09:35.733Z,26.71
2023-05-14T01:10:35.754Z,27.06
2023-05-14T01:11:36.784Z,28.01
2023-05-14T01:12:35.794Z,28.23
2023-05-14T01:13:36.815Z,26.04
2023-05-14T01:14:36.841Z,26.54
2023-05-14T01:15:36.896Z,27.94
2023-05-14T01:16:37.306Z,25.00
2023-05-14T01:17:37.017Z,26.81
2023-05-14T01:18:36.980Z,27.01
2023-05-14T01:19:36.959Z,27.40
2023-05-14T01:20:37.000Z,27.73
2023-05-14T01:21:37.012Z,27.81
2023-05-14T01:22:36.043Z,28.58
2023-05-14T01:23:37.062Z,25.87
2023-05-14T01:24:37.079Z,27.70
2023-05-14T01:25:36.104Z,26.97
2023-05-14T01:26:36.120Z,26.50
2023-05-14T01:27:37.147Z,27.65
2023-05-14T01:28:37.169Z,25.31
2023-05-14T01:29:36.185Z,25.34
2023-05-14T01:30:36.243Z,27.05
2023-05-14T01:31:37.277Z,27.20
2023-05-14T01:32:37.318Z,26.73
2023-05-14T01:33:37.268Z,25.55
2023-05-14T01:34:37.313Z,27.51
2023-05-14T01:35:37.338Z,28.16
2023-05-14T01:36:36.350Z,25.95
2023-05-14T01:37:36.372Z,27.75
2023-05-14T01:38:36.390Z,26.66
2023-05-14T01:39:37.423Z,26.68
2023-05-14T01:40:37.450Z,28.36
2023-05-14T01:41:37.486Z,27.34
2023-05-14T01:42:37.492Z,27.54
2023-05-14T01:43:37.587Z,26.83
2023-05-14T01:44:36.519Z,27.35
2023-05-14T01:45:37.568Z,26.52
2023-05-14T01:46:37.750Z,26.68
2023-05-14T01:47:36.678Z,27.08
2023-05-14T01:48:37.643Z,27.02
2023-05-14T01:49:37.642Z,26.80
2023-05-14T01:50:37.707Z,25.88
2023-05-14T01:51:37.695Z,27.97
2023-05-14T01:52:37.726Z,26.46
2023-05-14T01:53:37.756Z,25.96
2023-05-14T01:54:36.795Z,26.91
2023-05-14T01:55:37.809Z,26.40
2023-05-14T01:56:37.834Z,27.60
2023-05-14T01:57:37.862Z,27.62
2023-05-14T01:58:36.880Z,26.48
2023-05-14T01:59:37.913Z,25.00
2023-05-14T02:00:38.003Z,27.38
2023-05-14T02:01:38.035Z,27.56
2023-05-14T02:02:38.081Z,26.82
2023-05-14T02:03:38.133Z,27.19
2023-05-14T02:04:38.068Z,26.38
2023-05-14T02:05:38.102Z,26.16
2023-05-14T02:06:37.138Z,26.19
2023-05-14T02:07:38.165Z,27.62
2023-05-14T02:08:37.188Z,27.72
2023-05-14T02:09:37.212Z,25.98
2023-05-14T02:10:37.266Z,27.63
2023-05-14T02:11:37.284Z,27.13
2023-05-14T02:12:38.297Z,27.51
2023-05-14T02:13:37.349Z,28.27
2023-05-14T02:14:37.361Z,28.11
2023-05-14T02:15:37.410Z,26.18
2023-05-14T02:16:38.460Z,26.27
2023-05-14T02:17:37.449Z,27.21
2023-05-14T02:18:38.520Z,26.39
2023-05-14T02:19:38.542Z,25.97
2023-05-14T02:20:37.533Z,26.16
2023-05-14T02:21:37.571Z,25.61
2023-05-14T02:22:37.673Z,26.60
2023-05-14T02:23:41.715Z,27.14
2023-05-14T02:24:37.621Z,27.37
2023-05-14T02:25:38.630Z,27.50
2023-05-14T02:26:38.621Z,27.70
2023-05-14T02:27:37.607Z,28.18
2023-05-14T02:28:38.637Z,28.24
2023-05-14T02:29:38.598Z,27.14
2023-05-14T02:30:38.604Z,27.34
2023-05-14T02:31:38.593Z,28.30
2023-05-14T02:32:37.678Z,27.11
2023-05-14T02:33:38.619Z,26.82
2023-05-14T02:34:37.556Z,25.45
2023-05-14T02:35:38.581Z,27.02
2023-05-14T02:36:37.550Z,26.74
2023-05-14T02:37:37.541Z,27.44
2023-05-14T02:38:38.526Z,28.20
2023-05-14T02:39:38.548Z,26.80
2023-05-14T02:40:37.521Z,27.65
2023-05-14T02:41:37.500Z,25.63
2023-05-14T02:42:38.526Z,27.14
2023-05-14T02:43:38.525Z,26.43
2023-05-14T02:44:38.496Z,27.86
2023-05-14T02:45:37.480Z,25.91
2023-05-14T02:46:38.510Z,26.29
2023-05-14T02:47:38.117Z,28.39
2023-05-14T02:48:37.461Z,26.79
2023-05-14T02:49:38.450Z,25.81
2023-05-14T02:50:38.480Z,26.78
2023-05-14T02:51:38.554Z,26.84
2023-05-14T02:52:38.570Z,26.92
2023-05-14T02:53:38.569Z,26.19
2023-05-14T02:54:38.587Z,25.85
2023-05-14T02:55:38.609Z,26.74
2023-05-14T02:56:37.646Z,28.53
2023-05-14T02:57:37.694Z,25.49
2023-05-14T02:58:38.708Z,28.49
2023-05-14T02:59:37.730Z,26.53
2023-05-14T03:00:37.843Z,27.74
2023-05-14T03:01:38.807Z,29.05
2023-05-14T03:02:37.910Z,27.51
2023-05-14T03:03:38.861Z,26.61
2023-05-14T03:04:38.884Z,28.02
2023-05-14T03:05:37.923Z,26.13
2023-05-14T03:06:38.186Z,25.66
2023-05-14T03:07:38.015Z,27.20
2023-05-14T03:08:38.041Z,27.17
2023-05-14T03:09:39.041Z,25.33
2023-05-14T03:10:39.108Z,25.67
2023-05-14T03:11:38.148Z,28.10
2023-05-14T03:12:38.164Z,26.17
2023-05-14T03:13:38.222Z,28.62
2023-05-14T03:14:38.226Z,28.13
2023-05-14T03:15:39.322Z,25.14
2023-05-14T03:16:39.330Z,28.15
2023-05-14T03:17:38.330Z,27.11
2023-05-14T03:18:39.410Z,27.25
2023-05-14T03:19:38.369Z,28.19
2023-05-14T03:20:39.385Z,27.37
2023-05-14T03:21:38.453Z,27.03
2023-05-14T03:22:38.481Z,28.17
2023-05-14T03:23:39.595Z,27.26
2023-05-14T03:24:39.591Z,26.44
2023-05-14T03:25:39.570Z,28.93
2023-05-14T03:26:38.616Z,25.00
2023-05-14T03:27:39.644Z,26.66
2023-05-14T03:28:39.685Z,25.66
2023-05-14T03:29:39.699Z,26.83
2023-05-14T03:30:38.756Z,26.00
2023-05-14T03:31:39.789Z,27.54
2023-05-14T03:32:38.809Z,27.89
2023-05-14T03:33:39.839Z,25.29
2023-05-14T03:34:39.924Z,25.84
2023-05-14T03:35:38.917Z,26.65
2023-05-14T03:36:38.974Z,26.40
2023-05-14T03:37:39.986Z,26.47
2023-05-14T03:38:39.013Z,27.28
2023-05-14T03:39:39.066Z,27.99
2023-05-14T03:40:39.083Z,27.35
2023-05-14T03:41:39.128Z,27.24
2023-05-14T03:42:40.154Z,27.67
2023-05-14T03:43:39.183Z,26.89
2023-05-14T03:44:39.203Z,25.00
2023-05-14T03:45:40.286Z,25.61
2023-05-14T03:46:40.293Z,26.38
2023-05-14T03:47:39.382Z,25.94
2023-05-14T03:48:40.386Z,27.51
2023-05-14T03:49:39.403Z,27.04
2023-05-14T03:50:40.415Z,25.82
2023-05-14T03:51:40.456Z,26.80
2023-05-14T03:52:39.471Z,26.67
2023-05-14T03:53:40.528Z,27.13
2023-05-14T03:54:40.551Z,26.85
2023-05-14T03:55:39.598Z,25.00
2023-05-14T03:56:40.609Z,27.83
2023-05-14T03:57:40.648Z,26.80
2023-05-14T03:58:40.675Z,27.86
2023-05-14T03:59:39.711Z,28.53
2023-05-14T04:00:39.773Z,27.72
2023-05-14T04:01:39.780Z,29.19
2023-05-14T04:02:40.867Z,26.67
2023-05-14T04:03:40.037Z,25.72
2023-05-14T04:04:39.908Z,27.11
2023-05-14T04:05:39.921Z,28.11
2023-05-14T04:06:40.957Z,26.41
2023-05-14T04:07:40.974Z,26.79
2023-05-14T04:08:40.992Z,26.77
2023-05-14T04:09:41.069Z,28.75
2023-05-14T04:10:41.134Z,26.15
2023-05-14T04:11:41.126Z,26.86
2023-05-14T04:12:41.131Z,27.32
2023-05-14T04:13:40.173Z,27.66
2023-05-14T04:14:41.223Z,25.31
2023-05-14T04:15:40.252Z,25.36
2023-05-14T04:16:40.362Z,28.01
2023-05-14T04:17:40.356Z,25.22
2023-05-14T04:18:40.423Z,26.03
2023-05-14T04:19:40.418Z,26.72
2023-05-14T04:20:40.453Z,26.59
2023-05-14T04:21:41.507Z,26.03
2023-05-14T04:22:41.539Z,27.47
2023-05-14T04:23:40.581Z,27.18
2023-05-14T04:24:41.622Z,27.66
2023-05-14T04:25:40.661Z,28.20
2023-05-14T04:26:40.740Z,27.13
2023-05-14T04:27:40.753Z,28.92
2023-05-14T04:28:41.774Z,26.37
2023-05-14T04:29:40.808Z,27.36
2023-05-14T04:30:40.859Z,28.85
2023-05-14T04:31:40.948Z,26.09
2023-05-14T04:32:41.951Z,27.89
2023-05-14T04:33:41.974Z,26.18
2023-05-14T04:34:42.013Z,28.74
2023-05-14T04:35:41.037Z,26.55
2023-05-14T04:36:41.081Z,27.12
2023-05-14T04:37:42.114Z,26.02
2023-05-14T04:38:42.184Z,26.26
2023-05-14T04:39:42.182Z,28.12
2023-05-14T04:40:42.226Z,29.03
2023-05-14T04:41:41.268Z,27.98
2023-05-14T04:42:42.315Z,28.00
2023-05-14T04:43:41.324Z,26.34
2023-05-14T04:44:41.381Z,28.06
2023-05-14T04:45:41.452Z,28.52
2023-05-14T04:46:42.460Z,27.36
2023-05-14T04:47:42.568Z,26.67
2023-05-14T04:48:42.555Z,25.38
2023-05-14T04:49:41.574Z,27.29
2023-05-14T04:50:41.631Z,29.54
2023-05-14T04:51:42.673Z,27.47
2023-05-14T04:52:41.699Z,26.55
2023-05-14T04:53:42.737Z,28.93
2023-05-14T04:54:42.844Z,28.81
2023-05-14T04:55:42.815Z,28.05
2023-05-14T04:56:42.863Z,26.70
2023-05-14T04:57:41.902Z,28.30
2023-05-14T04:58:42.971Z,27.39
2023-05-14T04:59:42.965Z,27.10
2023-05-14T05:00:43.044Z,27.78
2023-05-14T05:01:42.109Z,26.50
2023-05-14T05:02:43.160Z,27.25
2023-05-14T05:03:43.230Z,26.87
2023-05-14T05:04:43.188Z,27.97
2023-05-14T05:05:43.223Z,27.76
2023-05-14T05:06:43.293Z,27.58
2023-05-14T05:07:43.309Z,27.19
2023-05-14T05:08:43.344Z,27.24
2023-05-14T05:09:43.393Z,25.00
2023-05-14T05:10:43.439Z,28.00
2023-05-14T05:11:43.514Z,27.34
2023-05-14T05:12:42.520Z,27.24
2023-05-14T05:13:43.564Z,26.38
2023-05-14T05:14:43.636Z,28.99
2023-05-14T05:15:43.671Z,27.24
2023-05-14T05:16:43.709Z,27.93
2023-05-14T05:17:43.774Z,27.67
2023-05-14T05:18:42.791Z,28.53
2023-05-14T05:19:44.502Z,28.13
2023-05-14T05:20:42.865Z,26.24
2023-05-14T05:21:42.904Z,26.16
2023-05-14T05:22:43.986Z,28.58
2023-05-14T05:23:43.001Z,28.86
2023-05-14T05:24:43.029Z,28.93
2023-05-14T05:25:43.089Z,28.05
2023-05-14T05:26:43.138Z,27.43
2023-05-14T05:27:44.142Z,28.43
2023-05-14T05:28:44.183Z,26.51
2023-05-14T05:29:43.238Z,27.17
2023-05-14T05:30:44.303Z,27.13
2023-05-14T05:31:43.321Z,28.31
2023-05-14T05:32:44.392Z,28.53
2023-05-14T05:33:43.378Z,27.38
2023-05-14T05:34:44.405Z,26.79
2023-05-14T05:35:44.465Z,26.80
2023-05-14T05:36:44.491Z,27.11
2023-05-14T05:37:43.520Z,29.44
2023-05-14T05:38:43.556Z,27.87
2023-05-14T05:39:43.621Z,28.46
2023-05-14T05:40:44.638Z,25.75
2023-05-14T05:41:43.678Z,28.54
2023-05-14T05:42:44.705Z,27.39
2023-05-14T05:43:43.758Z,28.03
2023-05-14T05:44:44.776Z,27.44
2023-05-14T05:45:44.812Z,29.12
2023-05-14T05:46:43.953Z,29.86
2023-05-14T05:47:43.904Z,26.65
2023-05-14T05:48:43.924Z,27.74
2023-05-14T05:49:44.998Z,27.60
2023-05-14T05:50:44.991Z,27.30
2023-05-14T05:51:44.042Z,29.08
2023-05-14T05:52:45.070Z,26.81
2023-05-14T05:53:45.108Z,26.96
2023-05-14T05:54:44.144Z,30.08
2023-05-14T05:55:44.182Z,26.81
2023-05-14T05:56:45.237Z,26.28
2023-05-14T05:57:45.261Z,29.30
2023-05-14T05:58:44.356Z,27.61
2023-05-14T05:59:44.334Z,27.34
2023-05-14T06:00:44.369Z,26.17
2023-05-14T06:01:44.496Z,27.07
2023-05-14T06:02:44.579Z,26.87
2023-05-14T06:03:48.298Z,28.30
2023-05-14T06:04:44.470Z,28.45
2023-05-14T06:05:45.470Z,28.43
2023-05-14T06:06:45.508Z,28.47
2023-05-14T06:07:44.465Z,27.43
2023-05-14T06:08:45.458Z,27.30
2023-05-14T06:09:45.469Z,28.28
2023-05-14T06:10:47.554Z,28.29
2023-05-14T06:11:44.435Z,28.44
2023-05-14T06:12:44.432Z,28.47
2023-05-14T06:13:45.403Z,28.79
2023-05-14T06:14:45.399Z,29.51
2023-05-14T06:15:45.408Z,27.72
2023-05-14T06:16:44.420Z,28.37
2023-05-14T06:17:45.408Z,28.91
2023-05-14T06:18:45.439Z,28.88
2023-05-14T06:19:44.389Z,25.99
2023-05-14T06:20:44.385Z,27.81
2023-05-14T06:21:45.345Z,27.93
2023-05-14T06:22:45.347Z,26.23
2023-05-14T06:23:45.350Z,27.39
2023-05-14T06:24:45.340Z,28.96
2023-05-14T06:25:44.334Z,28.79
2023-05-14T06:26:44.332Z,27.77
2023-05-14T06:27:44.315Z,27.87
2023-05-14T06:28:44.310Z,28.10
2023-05-14T06:29:45.293Z,28.78
2023-05-14T06:30:45.304Z,27.08
2023-05-14T06:31:44.339Z,26.75
2023-05-14T06:32:44.358Z,27.12
2023-05-14T06:33:44.279Z,27.70
2023-05-14T06:34:45.271Z,27.34
2023-05-14T06:35:44.245Z,27.38
2023-05-14T06:36:44.245Z,28.13
2023-05-14T06:37:44.243Z,28.15
2023-05-14T06:38:45.238Z,27.34
2023-05-14T06:39:44.230Z,27.19
2023-05-14T06:40:45.227Z,29.05
2023-05-14T06:41:44.249Z,27.35
2023-05-14T06:42:45.211Z,26.84
2023-05-14T06:43:45.200Z,26.54
2023-05-14T06:44:44.183Z,28.37
2023-05-14T06:45:45.192Z,26.52
2023-05-14T06:46:45.168Z,28.04
2023-05-14T06:47:44.219Z,27.04
2023-05-14T06:48:44.194Z,28.32
2023-05-14T06:49:45.166Z,26.73
2023-05-14T06:50:45.191Z,27.23
2023-05-14T06:51:44.159Z,28.16
2023-05-14T06:52:45.162Z,27.62
2023-05-14T06:53:45.200Z,27.09
2023-05-14T06:54:45.240Z,28.14
2023-05-14T06:55:45.246Z,27.69
2023-05-14T06:56:44.288Z,27.47
2023-05-14T06:57:44.342Z,28.98
2023-05-14T06:58:45.364Z,28.01
2023-05-14T06:59:45.427Z,26.66
2023-05-14T07:00:44.459Z,26.13
2023-05-14T07:01:44.496Z,27.17
2023-05-14T07:02:45.517Z,26.29
2023-05-14T07:03:44.490Z,25.23
2023-05-14T07:04:44.584Z,26.05
2023-05-14T07:05:45.552Z,26.96
2023-05-14T07:06:45.618Z,29.32
2023-05-14T07:07:45.616Z,27.08
2023-05-14T07:08:45.634Z,27.11
2023-05-14T07:09:45.672Z,28.73
2023-05-14T07:10:45.671Z,26.38
2023-05-14T07:11:44.705Z,27.94
2023-05-14T07:12:44.739Z,27.64
2023-05-14T07:13:45.754Z,28.07
2023-05-14T07:14:44.763Z,27.62
2023-05-14T07:15:44.776Z,27.53
2023-05-14T07:16:45.844Z,28.35
2023-05-14T07:17:45.904Z,28.36
2023-05-14T07:18:44.857Z,27.73
2023-05-14T07:19:45.851Z,29.67
2023-05-14T07:20:44.853Z,28.54
2023-05-14T07:21:44.865Z,28.86
2023-05-14T07:22:45.909Z,29.69
2023-05-14T07:23:45.904Z,28.10
2023-05-14T07:24:45.912Z,30.38
2023-05-14T07:25:44.939Z,26.82
2023-05-14T07:26:45.970Z,27.37
2023-05-14T07:27:45.989Z,28.78
2023-05-14T07:28:44.976Z,28.82
2023-05-14T07:29:45.016Z,28.56
2023-05-14T07:30:46.017Z,28.10
2023-05-14T07:31:45.118Z,27.29
2023-05-14T07:32:45.064Z,26.61
2023-05-14T07:33:45.038Z,26.62
2023-05-14T07:34:45.057Z,28.09
2023-05-14T07:35:46.093Z,26.28
2023-05-14T07:36:45.092Z,26.38
2023-05-14T07:37:46.108Z,27.59
2023-05-14T07:38:45.141Z,28.37
2023-05-14T07:39:46.131Z,27.78
2023-05-14T07:40:45.147Z,27.23
2023-05-14T07:41:45.164Z,28.67
2023-05-14T07:42:45.174Z,27.79
2023-05-14T07:43:46.228Z,27.16
2023-05-14T07:44:45.196Z,27.85
2023-05-14T07:45:46.212Z,29.82
2023-05-14T07:46:46.229Z,27.93
2023-05-14T07:47:46.303Z,29.21
2023-05-14T07:48:45.309Z,28.36
2023-05-14T07:49:45.269Z,29.95
2023-05-14T07:50:45.282Z,27.92
2023-05-14T07:51:45.310Z,27.25
2023-05-14T07:52:46.317Z,28.35
2023-05-14T07:53:45.299Z,27.93
2023-05-14T07:54:45.342Z,28.91
2023-05-14T07:55:45.349Z,29.67
2023-05-14T07:56:46.354Z,27.70
2023-05-14T07:57:45.376Z,28.50
2023-05-14T07:58:46.370Z,28.68
2023-05-14T07:59:45.358Z,27.64
2023-05-14T08:00:45.383Z,28.34
2023-05-14T08:01:46.407Z,29.96
2023-05-14T08:02:46.598Z,27.83
2023-05-14T08:03:46.555Z,27.78
2023-05-14T08:04:46.416Z,28.81
2023-05-14T08:05:45.429Z,26.99
2023-05-14T08:06:46.461Z,29.30
2023-05-14T08:07:45.445Z,27.85
2023-05-14T08:08:46.443Z,28.58
2023-05-14T08:09:46.459Z,28.33
2023-05-14T08:10:45.534Z,27.83
2023-05-14T08:11:45.469Z,28.78
2023-05-14T08:12:46.465Z,27.79
2023-05-14T08:13:46.502Z,28.62
2023-05-14T08:14:45.488Z,27.84
2023-05-14T08:15:46.520Z,25.45
2023-05-14T08:16:45.522Z,26.19
2023-05-14T08:17:45.612Z,27.92
2023-05-14T08:18:46.552Z,28.53
2023-05-14T08:19:46.507Z,29.11
2023-05-14T08:20:46.514Z,27.91
2023-05-14T08:21:46.534Z,26.92
2023-05-14T08:22:46.526Z,29.35
2023-05-14T08:23:46.523Z,28.82
2023-05-14T08:24:46.534Z,28.00
2023-05-14T08:25:46.529Z,29.07
2023-05-14T08:26:45.588Z,27.46
2023-05-14T08:27:45.560Z,28.50
2023-05-14T08:28:45.562Z,30.08
2023-05-14T08:29:45.579Z,28.27
2023-05-14T08:30:45.582Z,29.22
2023-05-14T08:31:45.565Z,29.04
2023-05-14T08:32:46.618Z,28.12
2023-05-14T08:33:45.581Z,29.20
2023-05-14T08:34:45.586Z,28.30
2023-05-14T08:35:46.599Z,30.11
2023-05-14T08:36:45.580Z,27.89
2023-05-14T08:37:46.625Z,29.22
2023-05-14T08:38:46.595Z,29.08
2023-05-14T08:39:46.593Z,28.37
2023-05-14T08:40:46.598Z,30.41
2023-05-14T08:41:45.591Z,29.99
2023-05-14T08:42:45.626Z,29.20
2023-05-14T08:43:45.604Z,27.14
2023-05-14T08:44:46.598Z,28.21
2023-05-14T08:45:45.572Z,27.84
2023-05-14T08:46:46.645Z,28.51
2023-05-14T08:47:45.622Z,27.83
2023-05-14T08:48:45.614Z,29.88
2023-05-14T08:49:46.584Z,28.61
2023-05-14T08:50:45.572Z,29.55
2023-05-14T08:51:45.572Z,28.26
2023-05-14T08:52:46.572Z,31.56
2023-05-14T08:53:46.568Z,29.20
2023-05-14T08:54:45.582Z,30.92
2023-05-14T08:55:45.573Z,31.09
2023-05-14T08:56:45.553Z,29.52
2023-05-14T08:57:46.541Z,28.99
2023-05-14T08:58:46.565Z,30.85
2023-05-14T08:59:45.618Z,32.80
2023-05-14T09:00:45.553Z,29.20
2023-05-14T09:01:46.658Z,29.70
2023-05-14T09:02:46.587Z,30.27
2023-05-14T09:03:45.607Z,30.73
2023-05-14T09:04:46.557Z,30.30
2023-05-14T09:05:45.542Z,30.15
2023-05-14T09:06:46.544Z,29.56
2023-05-14T09:07:46.536Z,29.73
2023-05-14T09:08:46.583Z,31.28
2023-05-14T09:09:46.532Z,31.15
2023-05-14T09:10:46.526Z,31.46
2023-05-14T09:11:45.525Z,29.98
2023-05-14T09:12:45.546Z,31.59
2023-05-14T09:13:45.521Z,30.86
2023-05-14T09:14:46.550Z,32.97
2023-05-14T09:15:45.530Z,30.92
2023-05-14T09:16:46.667Z,31.58
2023-05-14T09:17:46.590Z,31.48
2023-05-14T09:18:46.588Z,31.95
2023-05-14T09:19:45.523Z,30.55
2023-05-14T09:20:45.546Z,31.26
2023-05-14T09:21:46.553Z,30.97
2023-05-14T09:22:45.548Z,30.28
2023-05-14T09:23:45.555Z,30.78
2023-05-14T09:24:45.537Z,31.54
2023-05-14T09:25:46.539Z,33.12
2023-05-14T09:26:46.538Z,32.09
2023-05-14T09:27:45.534Z,31.73
2023-05-14T09:28:45.546Z,30.30
2023-05-14T09:29:45.536Z,32.41
2023-05-14T09:30:46.563Z,31.55
2023-05-14T09:31:46.569Z,32.59
2023-05-14T09:32:45.572Z,32.72
2023-05-14T09:33:46.549Z,31.77
2023-05-14T09:34:45.547Z,33.44
2023-05-14T09:35:46.575Z,31.72
2023-05-14T09:36:46.559Z,32.78
2023-05-14T09:37:46.550Z,32.93
2023-05-14T09:38:46.552Z,33.27
2023-05-14T09:39:45.574Z,34.73
2023-05-14T09:40:46.584Z,34.41
2023-05-14T09:41:45.581Z,32.88
2023-05-14T09:42:45.586Z,35.26
2023-05-14T09:43:45.588Z,34.86
2023-05-14T09:44:45.605Z,33.01
2023-05-14T09:45:45.606Z,33.53
2023-05-14T09:46:45.624Z,34.08
2023-05-14T09:47:45.939Z,33.61
2023-05-14T09:48:45.650Z,32.55
2023-05-14T09:49:46.596Z,31.77
2023-05-14T09:50:45.732Z,33.05
2023-05-14T09:51:45.593Z,31.71
2023-05-14T09:52:46.603Z,33.29
2023-05-14T09:53:45.640Z,33.01
2023-05-14T09:54:45.623Z,33.78
2023-05-14T09:55:45.618Z,33.74
2023-05-14T09:56:45.630Z,33.97
2023-05-14T09:57:46.618Z,34.00
2023-05-14T09:58:45.629Z,34.39
2023-05-14T09:59:46.627Z,34.98
2023-05-14T10:00:45.662Z,33.95
2023-05-14T10:01:45.718Z,33.99
2023-05-14T10:02:46.714Z,34.36
2023-05-14T10:03:46.657Z,35.57
2023-05-14T10:04:46.750Z,35.97
2023-05-14T10:05:46.657Z,34.87
2023-05-14T10:06:46.676Z,35.19
2023-05-14T10:07:46.689Z,36.29
2023-05-14T10:08:46.672Z,33.73
2023-05-14T10:09:46.673Z,35.81
2023-05-14T10:10:45.683Z,35.50
2023-05-14T10:11:46.679Z,35.04
2023-05-14T10:12:45.653Z,35.32
2023-05-14T10:13:46.683Z,35.84
2023-05-14T10:14:45.670Z,36.65
2023-05-14T10:15:46.658Z,36.63
2023-05-14T10:16:46.680Z,34.86
2023-05-14T10:17:46.670Z,35.84
2023-05-14T10:18:45.736Z,35.91
2023-05-14T10:19:46.664Z,35.08
2023-05-14T10:20:45.637Z,36.34
2023-05-14T10:21:45.644Z,35.86
2023-05-14T10:22:45.649Z,35.63
2023-05-14T10:23:46.672Z,35.43
2023-05-14T10:24:45.639Z,35.60
2023-05-14T10:25:45.655Z,36.57
2023-05-14T10:26:45.632Z,36.10
2023-05-14T10:27:45.624Z,35.93
2023-05-14T10:28:45.625Z,36.21
2023-05-14T10:29:46.625Z,35.40
2023-05-14T10:30:46.773Z,35.31
2023-05-14T10:31:45.662Z,35.76
2023-05-14T10:32:45.644Z,34.97
2023-05-14T10:33:46.623Z,35.81
2023-05-14T10:34:46.623Z,35.51
2023-05-14T10:35:46.603Z,35.81
2023-05-14T10:36:46.598Z,35.31
2023-05-14T10:37:46.610Z,35.24
2023-05-14T10:38:46.598Z,36.91
2023-05-14T10:39:45.622Z,36.46
2023-05-14T10:40:45.591Z,36.28
2023-05-14T10:41:46.597Z,36.19
2023-05-14T10:42:45.590Z,35.72
2023-05-14T10:43:45.589Z,37.27
2023-05-14T10:44:46.579Z,35.76
2023-05-14T10:45:45.576Z,35.88
2023-05-14T10:46:46.603Z,37.32
2023-05-14T10:47:45.614Z,35.94
2023-05-14T10:48:46.596Z,35.67
2023-05-14T10:49:46.596Z,35.81
2023-05-14T10:50:45.622Z,36.72
2023-05-14T10:51:45.620Z,35.98
2023-05-14T10:52:46.634Z,38.25
2023-05-14T10:53:45.677Z,34.46
2023-05-14T10:54:46.659Z,37.34
2023-05-14T10:55:45.678Z,36.33
2023-05-14T10:56:46.683Z,36.61
2023-05-14T10:57:45.710Z,37.47
2023-05-14T10:58:46.742Z,37.64
2023-05-14T10:59:46.754Z,36.44
2023-05-14T11:00:45.757Z,35.21
2023-05-14T11:01:46.814Z,35.62
2023-05-14T11:02:45.865Z,37.63
2023-05-14T11:03:46.982Z,35.52
2023-05-14T11:04:46.849Z,38.29
2023-05-14T11:05:45.865Z,37.31
2023-05-14T11:06:45.890Z,36.78
2023-05-14T11:07:46.884Z,37.72
2023-05-14T11:08:46.972Z,37.46
2023-05-14T11:09:46.987Z,37.87
2023-05-14T11:10:46.016Z,37.63
2023-05-14T11:11:46.032Z,37.41
2023-05-14T11:12:46.098Z,37.67
2023-05-14T11:13:47.113Z,38.69
2023-05-14T11:14:47.141Z,40.11
2023-05-14T11:15:46.173Z,39.81
2023-05-14T11:16:47.233Z,40.09
2023-05-14T11:17:47.296Z,39.36
2023-05-14T11:18:46.300Z,40.17
2023-05-14T11:19:49.744Z,40.33
2023-05-14T11:20:47.292Z,40.54
2023-05-14T11:21:47.349Z,40.67
2023-05-14T11:22:46.387Z,41.18
2023-05-14T11:23:47.284Z,40.82
2023-05-14T11:24:46.292Z,42.22
2023-05-14T11:25:46.314Z,41.97
2023-05-14T11:26:46.242Z,42.51
2023-05-14T11:27:46.231Z,42.02
2023-05-14T11:28:47.232Z,42.63
2023-05-14T11:29:46.281Z,42.40
2023-05-14T11:30:47.212Z,42.55
2023-05-14T11:31:47.256Z,41.95
2023-05-14T11:32:46.289Z,42.32
2023-05-14T11:33:46.259Z,40.99
2023-05-14T11:34:46.349Z,42.05
2023-05-14T11:35:47.402Z,41.42
2023-05-14T11:36:46.476Z,40.40
2023-05-14T11:37:47.522Z,43.95
2023-05-14T11:38:47.609Z,41.84
2023-05-14T11:39:46.696Z,44.11
2023-05-14T11:40:47.709Z,43.28
2023-05-14T11:41:46.800Z,43.08
2023-05-14T11:42:46.836Z,43.49
2023-05-14T11:43:47.875Z,38.89
2023-05-14T11:44:47.923Z,43.87
2023-05-14T11:45:48.036Z,41.87
2023-05-14T11:46:47.060Z,43.62
2023-05-14T11:47:47.171Z,42.97
2023-05-14T11:48:48.199Z,42.41
2023-05-14T11:49:48.226Z,41.89
2023-05-14T11:50:48.321Z,43.02
2023-05-14T11:51:48.380Z,42.31
2023-05-14T11:52:47.419Z,41.56
2023-05-14T11:53:48.497Z,40.68
2023-05-14T11:54:47.575Z,42.88
2023-05-14T11:55:47.591Z,44.08
2023-05-14T11:56:48.655Z,38.85
2023-05-14T11:57:48.704Z,43.39
2023-05-14T11:58:47.762Z,44.80
2023-05-14T11:59:48.814Z,44.70
2023-05-14T12:00:48.889Z,41.86
2023-05-14T12:01:49.524Z,43.68
2023-05-14T12:02:48.052Z,42.92
2023-05-14T12:03:48.021Z,44.73
2023-05-14T12:04:48.948Z,43.22
2023-05-14T12:05:47.910Z,46.31
2023-05-14T12:06:47.907Z,44.13
2023-05-14T12:07:48.908Z,42.23
2023-05-14T12:08:48.867Z,40.08
2023-05-14T12:09:47.894Z,45.82
2023-05-14T12:10:48.879Z,42.74
2023-05-14T12:11:47.859Z,41.62
2023-05-14T12:12:48.852Z,40.67
2023-05-14T12:13:48.847Z,43.99
2023-05-14T12:14:48.855Z,43.51
2023-05-14T12:15:48.859Z,42.94
2023-05-14T12:16:47.891Z,42.19
2023-05-14T12:17:47.850Z,42.26
2023-05-14T12:18:47.846Z,39.36
2023-05-14T12:19:47.808Z,42.20
2023-05-14T12:20:48.847Z,42.50
2023-05-14T12:21:47.818Z,43.64
2023-05-14T12:22:48.783Z,42.77
2023-05-14T12:23:47.784Z,42.12
2023-05-14T12:24:48.756Z,41.13
2023-05-14T12:25:47.804Z,42.78
2023-05-14T12:26:48.891Z,39.63
2023-05-14T12:27:48.903Z,42.48
2023-05-14T12:28:49.027Z,42.98
2023-05-14T12:29:49.042Z,40.35
2023-05-14T12:30:49.103Z,42.29
2023-05-14T12:31:48.214Z,39.26
2023-05-14T12:32:49.238Z,42.56
2023-05-14T12:33:49.271Z,40.78
2023-05-14T12:34:48.327Z,40.34
2023-05-14T12:35:49.361Z,39.03
2023-05-14T12:36:49.433Z,40.46
2023-05-14T12:37:48.461Z,39.12
2023-05-14T12:38:49.518Z,41.12
2023-05-14T12:39:49.590Z,43.53
2023-05-14T12:40:48.652Z,42.72
2023-05-14T12:41:48.717Z,40.27
2023-05-14T12:42:48.807Z,40.61
2023-05-14T12:43:49.832Z,38.03
2023-05-14T12:44:48.918Z,39.26
2023-05-14T12:45:49.965Z,39.44
2023-05-14T12:46:50.086Z,41.42
2023-05-14T12:47:50.158Z,37.14
2023-05-14T12:48:52.373Z,35.89
2023-05-14T12:49:49.152Z,36.02
2023-05-14T12:50:50.133Z,36.31
2023-05-14T12:51:52.681Z,37.33
2023-05-14T12:52:50.132Z,36.31